Terminal Aerodrome Forecast
Issued by NWS Sterling, VA

Current Version | Previous Version | Text Only | Print | Product List | Glossary Off
Versions: 1 2 3 4 5 6 7 8 9 10 11 12 13

000
FTUS41 KLWX 231318 AAA
TAFMRB
TAF AMD
KMRB 231318Z 2313/2412 28013G26KT P6SM SKC
     FM231600 29016G25KT P6SM BKN050
     FM240000 30011KT P6SM BKN045
     FM240400 30007KT P6SM BKN045=

USA.gov is the U.S. government's official web portal to all federal, state and local government web resources and services.